createdAt,value
2023-02-22T00:02:05.651Z,34.72
2023-02-22T00:04:32.076Z,34.84
2023-02-22T00:06:58.431Z,34.75
2023-02-22T00:09:24.756Z,34.67
2023-02-22T00:11:51.118Z,34.81
2023-02-22T00:14:17.415Z,34.72
2023-02-22T00:16:43.830Z,34.94
2023-02-22T00:19:10.222Z,35.04
2023-02-22T00:21:36.530Z,34.60
2023-02-22T00:24:02.895Z,34.72
2023-02-22T00:26:29.248Z,34.35
2023-02-22T00:28:55.587Z,34.72
2023-02-22T00:31:21.961Z,34.65
2023-02-22T00:33:48.307Z,34.82
2023-02-22T00:36:14.632Z,35.06
2023-02-22T00:38:41.037Z,34.68
2023-02-22T00:41:07.419Z,34.71
2023-02-22T00:43:33.796Z,35.08
2023-02-22T00:46:00.209Z,34.77
2023-02-22T00:48:26.574Z,34.68
2023-02-22T00:50:52.953Z,34.72
2023-02-22T00:53:19.290Z,34.67
2023-02-22T00:55:45.611Z,34.49
2023-02-22T00:58:11.919Z,34.78
2023-02-22T01:00:38.291Z,34.65
2023-02-22T01:03:04.651Z,34.63
2023-02-22T01:05:31.054Z,34.56
2023-02-22T01:07:57.463Z,34.67
2023-02-22T01:10:23.841Z,35.27
2023-02-22T01:12:50.208Z,34.60
2023-02-22T01:15:16.555Z,34.99
2023-02-22T01:17:42.932Z,34.78
2023-02-22T01:20:09.238Z,34.79
2023-02-22T01:22:35.593Z,34.71
2023-02-22T01:25:01.971Z,34.76
2023-02-22T01:27:28.363Z,35.29
2023-02-22T01:29:54.679Z,35.05
2023-02-22T01:32:21.113Z,34.79
2023-02-22T01:34:47.444Z,35.17
2023-02-22T01:37:13.765Z,35.13
2023-02-22T01:39:40.134Z,34.97
2023-02-22T01:42:06.518Z,35.22
2023-02-22T01:44:32.873Z,35.01
2023-02-22T01:46:59.249Z,34.88
2023-02-22T01:49:25.619Z,35.20
2023-02-22T01:51:51.921Z,35.26
2023-02-22T01:54:18.224Z,34.81
2023-02-22T01:56:44.608Z,35.20
2023-02-22T01:59:10.969Z,34.92
2023-02-22T02:01:37.281Z,35.08
2023-02-22T02:04:03.638Z,34.70
2023-02-22T02:06:30.009Z,35.11
2023-02-22T02:08:56.359Z,34.75
2023-02-22T02:11:22.712Z,34.79
2023-02-22T02:13:49.035Z,35.05
2023-02-22T02:16:15.400Z,34.82
2023-02-22T02:18:41.819Z,35.06
2023-02-22T02:21:08.173Z,35.30
2023-02-22T02:23:34.499Z,35.14
2023-02-22T02:26:00.852Z,35.40
2023-02-22T02:28:27.229Z,35.02
2023-02-22T02:30:53.549Z,35.14
2023-02-22T02:33:19.858Z,35.08
2023-02-22T02:35:46.191Z,35.10
2023-02-22T02:38:12.525Z,35.02
2023-02-22T02:40:38.851Z,35.24
2023-02-22T02:43:05.246Z,35.17
2023-02-22T02:45:31.549Z,34.91
2023-02-22T02:47:57.856Z,35.29
2023-02-22T02:50:24.214Z,35.04
2023-02-22T02:52:50.582Z,35.37
2023-02-22T02:55:16.946Z,35.22
2023-02-22T02:57:43.317Z,35.02
2023-02-22T03:00:09.687Z,34.92
2023-02-22T03:02:36.044Z,35.13
2023-02-22T03:05:02.408Z,35.14
2023-02-22T03:07:28.893Z,35.55
2023-02-22T03:09:55.246Z,34.89
2023-02-22T03:12:21.662Z,34.99
2023-02-22T03:14:48.008Z,35.43
2023-02-22T03:17:14.336Z,34.94
2023-02-22T03:19:40.664Z,34.96
2023-02-22T03:22:07.026Z,34.96
2023-02-22T03:24:33.332Z,35.02
2023-02-22T03:26:59.640Z,35.47
2023-02-22T03:29:26.013Z,35.08
2023-02-22T03:31:52.346Z,35.19
2023-02-22T03:34:18.699Z,35.14
2023-02-22T03:36:45.006Z,35.11
2023-02-22T03:39:11.361Z,35.18
2023-02-22T03:41:37.731Z,35.32
2023-02-22T03:44:04.052Z,35.09
2023-02-22T03:46:30.397Z,35.47
2023-02-22T03:48:56.752Z,35.43
2023-02-22T03:51:23.230Z,35.14
2023-02-22T03:53:49.606Z,35.02
2023-02-22T03:56:15.942Z,35.19
2023-02-22T03:58:42.292Z,35.43
2023-02-22T04:01:08.661Z,35.26
2023-02-22T04:03:35.015Z,35.52
2023-02-22T04:06:01.327Z,34.96
2023-02-22T04:08:27.677Z,35.38
2023-02-22T04:10:54.009Z,35.17
2023-02-22T04:13:20.354Z,35.28
2023-02-22T04:15:46.777Z,35.04
2023-02-22T04:18:13.128Z,35.33
2023-02-22T04:20:39.473Z,35.40
2023-02-22T04:23:05.859Z,35.47
2023-02-22T04:25:32.225Z,35.71
2023-02-22T04:27:58.556Z,35.65
2023-02-22T04:30:24.925Z,35.68
2023-02-22T04:32:51.279Z,35.60
2023-02-22T04:35:17.628Z,35.61
2023-02-22T04:37:43.954Z,35.28
2023-02-22T04:40:10.289Z,35.81
2023-02-22T04:42:36.639Z,35.60
2023-02-22T04:45:03.119Z,35.59
2023-02-22T04:47:29.520Z,35.25
2023-02-22T04:49:55.890Z,35.39
2023-02-22T04:52:22.225Z,35.48
2023-02-22T04:54:48.571Z,35.27
2023-02-22T04:57:14.909Z,35.33
2023-02-22T04:59:41.269Z,35.27
2023-02-22T05:02:07.573Z,35.29
2023-02-22T05:04:33.941Z,35.52
2023-02-22T05:07:00.303Z,35.64
2023-02-22T05:09:26.639Z,35.67
2023-02-22T05:11:52.965Z,35.65
2023-02-22T05:14:19.260Z,35.58
2023-02-22T05:16:45.586Z,35.24
2023-02-22T05:19:11.924Z,35.28
2023-02-22T05:21:38.261Z,35.63
2023-02-22T05:24:04.614Z,35.76
2023-02-22T05:26:30.972Z,35.25
2023-02-22T05:28:57.314Z,35.28
2023-02-22T05:31:23.752Z,35.58
2023-02-22T05:33:50.149Z,35.45
2023-02-22T05:36:16.509Z,35.57
2023-02-22T05:38:42.868Z,35.43
2023-02-22T05:41:09.257Z,35.49
2023-02-22T05:43:35.574Z,35.34
2023-02-22T05:46:01.929Z,35.63
2023-02-22T05:48:28.290Z,35.97
2023-02-22T05:50:54.613Z,35.80
2023-02-22T05:53:20.965Z,35.66
2023-02-22T05:55:47.297Z,35.80
2023-02-22T05:58:13.619Z,35.51
2023-02-22T06:00:39.949Z,35.38
2023-02-22T06:03:06.310Z,35.33
2023-02-22T06:05:32.750Z,35.77
2023-02-22T06:07:59.131Z,35.87
2023-02-22T06:10:25.523Z,36.02
2023-02-22T06:12:51.852Z,36.08
2023-02-22T06:15:18.172Z,35.81
2023-02-22T06:17:44.494Z,35.50
2023-02-22T06:20:10.848Z,35.49
2023-02-22T06:22:37.219Z,35.58
2023-02-22T06:25:03.551Z,35.77
2023-02-22T06:27:29.880Z,35.54
2023-02-22T06:29:56.204Z,35.92
2023-02-22T06:32:22.642Z,35.82
2023-02-22T06:34:49.048Z,36.19
2023-02-22T06:37:15.381Z,35.88
2023-02-22T06:39:41.715Z,35.90
2023-02-22T06:42:08.052Z,35.98
2023-02-22T06:44:34.439Z,36.26
2023-02-22T06:47:00.823Z,35.76
2023-02-22T06:49:27.122Z,35.88
2023-02-22T06:51:53.431Z,35.84
2023-02-22T06:54:19.735Z,35.70
2023-02-22T06:56:46.040Z,35.65
2023-02-22T06:59:12.424Z,35.70
2023-02-22T07:01:38.738Z,35.66
2023-02-22T07:04:05.044Z,35.65
2023-02-22T07:06:31.349Z,36.02
2023-02-22T07:08:57.774Z,35.99
2023-02-22T07:11:24.104Z,36.18
2023-02-22T07:13:50.460Z,36.01
2023-02-22T07:16:16.919Z,35.99
2023-02-22T07:18:43.350Z,35.94
2023-02-22T07:21:09.657Z,35.95
2023-02-22T07:23:35.966Z,35.82
2023-02-22T07:26:02.296Z,36.07
2023-02-22T07:28:28.644Z,36.12
2023-02-22T07:30:55.000Z,36.08
2023-02-22T07:33:21.319Z,36.53
2023-02-22T07:35:47.645Z,36.19
2023-02-22T07:38:14.006Z,36.45
2023-02-22T07:40:40.350Z,36.49
2023-02-22T07:43:07.249Z,36.52
2023-02-22T07:45:33.750Z,36.33
2023-02-22T07:48:00.132Z,36.08
2023-02-22T07:50:26.476Z,36.35
2023-02-22T07:52:52.840Z,36.51
2023-02-22T07:55:19.143Z,36.50
2023-02-22T07:57:45.448Z,36.07
2023-02-22T08:00:11.798Z,35.92
2023-02-22T08:02:38.204Z,36.36
2023-02-22T08:05:04.629Z,36.37
2023-02-22T08:07:30.932Z,36.57
2023-02-22T08:09:57.333Z,36.14
2023-02-22T08:12:23.676Z,36.06
2023-02-22T08:14:50.025Z,36.10
2023-02-22T08:17:16.353Z,36.36
2023-02-22T08:19:42.718Z,36.25
2023-02-22T08:22:09.219Z,36.68
2023-02-22T08:24:35.556Z,36.23
2023-02-22T08:27:01.881Z,36.64
2023-02-22T08:29:28.217Z,36.45
2023-02-22T08:31:54.725Z,36.73
2023-02-22T08:34:21.103Z,36.89
2023-02-22T08:36:47.408Z,36.66
2023-02-22T08:39:13.768Z,36.99
2023-02-22T08:41:40.096Z,36.85
2023-02-22T08:44:06.441Z,36.67
2023-02-22T08:46:32.755Z,36.50
2023-02-22T08:48:59.066Z,36.60
2023-02-22T08:51:27.511Z,36.69
2023-02-22T08:53:54.142Z,36.65
2023-02-22T08:56:20.496Z,36.64
2023-02-22T08:58:46.810Z,36.45
2023-02-22T09:01:15.529Z,36.76
2023-02-22T09:03:45.582Z,36.63
2023-02-22T09:06:11.937Z,36.69
2023-02-22T09:08:38.291Z,36.59
2023-02-22T09:11:04.638Z,36.65
2023-02-22T09:13:31.013Z,36.52
2023-02-22T09:15:57.323Z,36.58
2023-02-22T09:18:24.543Z,36.53
2023-02-22T09:20:51.873Z,36.52
2023-02-22T09:23:19.035Z,36.79
2023-02-22T09:25:46.519Z,36.72
2023-02-22T09:28:12.837Z,36.81
2023-02-22T09:30:39.200Z,36.91
2023-02-22T09:33:05.807Z,36.92
2023-02-22T09:35:32.336Z,36.75
2023-02-22T09:37:58.743Z,37.09
2023-02-22T09:40:25.313Z,37.08
2023-02-22T09:42:51.934Z,37.16
2023-02-22T09:45:18.311Z,36.75
2023-02-22T09:47:44.645Z,36.74
2023-02-22T09:50:10.986Z,36.82
2023-02-22T09:52:37.289Z,36.84
2023-02-22T09:55:03.618Z,36.59
2023-02-22T09:57:29.994Z,37.07
2023-02-22T09:59:56.316Z,36.67
2023-02-22T10:02:22.674Z,36.58
2023-02-22T10:04:48.997Z,36.95
2023-02-22T10:07:15.366Z,36.68
2023-02-22T10:09:41.696Z,36.84
2023-02-22T10:12:08.063Z,37.10
2023-02-22T10:14:34.383Z,36.63
2023-02-22T10:17:00.721Z,36.71
2023-02-22T10:19:27.036Z,37.11
2023-02-22T10:21:53.460Z,36.85
2023-02-22T10:24:19.836Z,37.02
2023-02-22T10:26:46.210Z,36.83
2023-02-22T10:29:12.590Z,36.85
2023-02-22T10:31:39.036Z,37.09
2023-02-22T10:34:05.431Z,37.14
2023-02-22T10:36:31.816Z,37.27
2023-02-22T10:38:58.139Z,37.05
2023-02-22T10:41:24.515Z,37.26
2023-02-22T10:43:50.884Z,37.45
2023-02-22T10:46:17.520Z,36.97
2023-02-22T10:48:44.119Z,37.09
2023-02-22T10:51:10.484Z,37.03
2023-02-22T10:53:36.836Z,37.21
2023-02-22T10:56:03.344Z,37.05
2023-02-22T10:58:29.742Z,37.39
2023-02-22T11:00:56.180Z,37.20
2023-02-22T11:03:22.540Z,37.07
2023-02-22T11:05:48.938Z,37.01
2023-02-22T11:08:15.288Z,37.12
2023-02-22T11:10:41.640Z,37.23
2023-02-22T11:13:08.040Z,37.16
2023-02-22T11:15:34.347Z,36.93
2023-02-22T11:18:00.712Z,36.96
2023-02-22T11:20:27.082Z,37.60
2023-02-22T11:22:53.445Z,37.19
2023-02-22T11:25:19.822Z,37.46
2023-02-22T11:27:46.161Z,37.35
2023-02-22T11:30:12.595Z,37.20
2023-02-22T11:32:39.006Z,37.13
2023-02-22T11:35:09.316Z,37.45
2023-02-22T11:37:35.913Z,37.32
2023-02-22T11:40:02.351Z,37.22
2023-02-22T11:42:28.716Z,37.07
2023-02-22T11:44:55.088Z,37.14
2023-02-22T11:47:21.466Z,37.24
2023-02-22T11:49:47.787Z,37.20
2023-02-22T11:52:14.166Z,37.59
2023-02-22T11:54:40.565Z,37.29
2023-02-22T11:57:06.913Z,37.32
2023-02-22T11:59:33.268Z,37.04
2023-02-22T12:01:59.601Z,37.43
2023-02-22T12:04:25.991Z,37.23
2023-02-22T12:06:52.350Z,37.09
2023-02-22T12:09:18.733Z,37.27
2023-02-22T12:11:45.104Z,37.32
2023-02-22T12:14:11.573Z,37.13
2023-02-22T12:16:37.937Z,37.22
2023-02-22T12:19:04.327Z,37.58
2023-02-22T12:21:30.777Z,37.23
2023-02-22T12:23:57.108Z,37.20
2023-02-22T12:26:23.407Z,37.59
2023-02-22T12:28:49.829Z,37.05
2023-02-22T12:31:16.478Z,37.05
2023-02-22T12:33:43.110Z,37.33
2023-02-22T12:36:09.451Z,37.53
2023-02-22T12:38:35.760Z,37.22
2023-02-22T12:41:02.075Z,37.48
2023-02-22T12:43:28.474Z,37.39
2023-02-22T12:45:54.782Z,37.16
2023-02-22T12:48:21.084Z,37.21
2023-02-22T12:50:47.398Z,37.28
2023-02-22T12:53:13.745Z,37.44
2023-02-22T12:55:40.066Z,37.50
2023-02-22T12:58:06.429Z,37.27
2023-02-22T13:00:32.738Z,37.51
2023-02-22T13:02:59.078Z,37.24
2023-02-22T13:05:25.582Z,37.44
2023-02-22T13:07:51.904Z,37.18
2023-02-22T13:10:18.268Z,37.39
2023-02-22T13:12:44.607Z,37.57
2023-02-22T13:15:10.936Z,37.48
2023-02-22T13:17:37.282Z,37.47
2023-02-22T13:20:03.661Z,37.46
2023-02-22T13:22:30.012Z,37.50
2023-02-22T13:24:56.351Z,37.17
2023-02-22T13:27:22.699Z,37.15
2023-02-22T13:29:49.147Z,37.14
2023-02-22T13:32:15.475Z,37.19
2023-02-22T13:34:41.906Z,37.59
2023-02-22T13:37:08.238Z,37.82
2023-02-22T13:39:34.544Z,37.63
2023-02-22T13:42:00.860Z,37.52
2023-02-22T13:44:27.164Z,37.34
2023-02-22T13:46:53.516Z,37.54
2023-02-22T13:49:19.905Z,37.41
2023-02-22T13:51:46.255Z,37.36
2023-02-22T13:54:12.566Z,37.51
2023-02-22T13:56:38.904Z,37.43
2023-02-22T13:59:05.290Z,37.51
2023-02-22T14:01:31.629Z,37.81
2023-02-22T14:03:58.057Z,37.51
2023-02-22T14:06:24.420Z,37.76
2023-02-22T14:08:50.746Z,37.51
2023-02-22T14:11:17.104Z,37.19
2023-02-22T14:13:43.498Z,37.61
2023-02-22T14:16:09.908Z,37.68
2023-02-22T14:18:36.249Z,37.45
2023-02-22T14:21:02.596Z,37.74
2023-02-22T14:23:28.930Z,37.65
2023-02-22T14:25:55.249Z,37.37
2023-02-22T14:28:21.718Z,37.77
2023-02-22T14:30:48.106Z,37.53
2023-02-22T14:33:15.581Z,37.39
2023-02-22T14:35:49.965Z,37.50
2023-02-22T14:38:16.891Z,37.51
2023-02-22T14:40:43.271Z,37.56
2023-02-22T14:43:09.670Z,37.74
2023-02-22T14:45:36.050Z,37.63
2023-02-22T14:48:02.401Z,37.54
2023-02-22T14:50:28.787Z,38.08
2023-02-22T14:52:55.140Z,37.70
2023-02-22T14:55:21.495Z,38.02
2023-02-22T14:57:47.840Z,37.98
2023-02-22T15:00:14.215Z,38.08
2023-02-22T15:02:40.605Z,37.71
2023-02-22T15:05:06.945Z,38.27
2023-02-22T15:07:33.285Z,38.17
2023-02-22T15:09:59.601Z,38.61
2023-02-22T15:12:25.898Z,38.74
2023-02-22T15:14:52.306Z,38.48
2023-02-22T15:17:18.638Z,38.52
2023-02-22T15:19:45.019Z,38.35
2023-02-22T15:22:11.369Z,38.41
2023-02-22T15:24:37.746Z,38.19
2023-02-22T15:27:05.997Z,38.12
2023-02-22T15:29:32.587Z,38.16
2023-02-22T15:31:59.005Z,38.57
2023-02-22T15:34:25.418Z,38.62
2023-02-22T15:36:51.752Z,38.52
2023-02-22T15:39:18.258Z,38.71
2023-02-22T15:41:44.635Z,38.53
2023-02-22T15:44:22.653Z,38.51
2023-02-22T15:46:50.213Z,38.74
2023-02-22T15:49:16.534Z,38.93
2023-02-22T15:51:42.878Z,38.95
2023-02-22T15:54:15.551Z,38.57
2023-02-22T15:56:47.852Z,39.05
2023-02-22T15:59:14.178Z,38.67
2023-02-22T16:01:42.522Z,39.22
2023-02-22T16:04:09.158Z,39.42
2023-02-22T16:06:35.578Z,38.70
2023-02-22T16:09:02.028Z,39.13
2023-02-22T16:11:28.532Z,39.13
2023-02-22T16:13:54.853Z,39.02
2023-02-22T16:16:21.207Z,38.71
2023-02-22T16:18:47.584Z,39.07
2023-02-22T16:21:13.953Z,38.84
2023-02-22T16:23:40.274Z,38.76
2023-02-22T16:26:06.669Z,38.71
2023-02-22T16:28:33.001Z,38.48
2023-02-22T16:30:59.429Z,38.61
2023-02-22T16:33:25.849Z,38.64
2023-02-22T16:35:52.494Z,38.94
2023-02-22T16:38:19.008Z,38.69
2023-02-22T16:40:45.340Z,38.47
2023-02-22T16:43:11.665Z,38.91
2023-02-22T16:45:38.573Z,38.93
2023-02-22T16:48:06.032Z,38.83
2023-02-22T16:50:32.355Z,38.82
2023-02-22T16:52:58.699Z,39.22
2023-02-22T16:55:25.025Z,38.75
2023-02-22T16:57:51.425Z,38.68
2023-02-22T17:00:17.737Z,39.11
2023-02-22T17:02:44.081Z,38.68
2023-02-22T17:05:10.436Z,38.58
2023-02-22T17:07:36.750Z,39.08
2023-02-22T17:10:03.117Z,38.64
2023-02-22T17:12:29.432Z,38.81
2023-02-22T17:14:55.731Z,39.12
2023-02-22T17:17:22.058Z,38.66
2023-02-22T17:19:48.429Z,38.60
2023-02-22T17:22:14.791Z,38.96
2023-02-22T17:24:41.106Z,38.62
2023-02-22T17:27:07.482Z,38.62
2023-02-22T17:29:33.855Z,39.00
2023-02-22T17:32:00.280Z,38.94
2023-02-22T17:34:26.672Z,38.84
2023-02-22T17:36:53.092Z,38.66
2023-02-22T17:39:19.400Z,38.65
2023-02-22T17:41:45.742Z,38.48
2023-02-22T17:44:12.063Z,38.81
2023-02-22T17:46:38.394Z,38.43
2023-02-22T17:49:04.753Z,38.78
2023-02-22T17:51:31.070Z,38.54
2023-02-22T17:53:57.437Z,39.01
2023-02-22T17:56:23.763Z,38.91
2023-02-22T17:58:50.314Z,38.60
2023-02-22T18:01:18.803Z,38.86
2023-02-22T18:03:46.896Z,38.50
2023-02-22T18:06:13.229Z,38.83
2023-02-22T18:08:39.556Z,39.22
2023-02-22T18:11:05.888Z,38.89
2023-02-22T18:13:32.237Z,38.84
2023-02-22T18:15:58.700Z,38.70
2023-02-22T18:18:25.078Z,38.91
2023-02-22T18:20:51.434Z,38.83
2023-02-22T18:23:17.846Z,39.07
2023-02-22T18:25:44.185Z,39.13
2023-02-22T18:28:10.495Z,38.68
2023-02-22T18:30:36.891Z,38.66
2023-02-22T18:33:03.268Z,38.77
2023-02-22T18:35:29.612Z,38.86
2023-02-22T18:37:55.978Z,38.87
2023-02-22T18:40:22.283Z,38.46
2023-02-22T18:42:48.669Z,38.68
2023-02-22T18:45:15.045Z,38.72
2023-02-22T18:47:41.425Z,38.79
2023-02-22T18:50:07.778Z,38.99
2023-02-22T18:52:34.144Z,38.42
2023-02-22T18:55:00.502Z,38.89
2023-02-22T18:57:26.807Z,38.80
2023-02-22T18:59:53.120Z,38.68
2023-02-22T19:02:19.430Z,39.13
2023-02-22T19:04:45.740Z,38.93
2023-02-22T19:07:12.088Z,38.57
2023-02-22T19:09:38.454Z,38.97
2023-02-22T19:12:04.777Z,39.11
2023-02-22T19:14:31.108Z,38.86
2023-02-22T19:16:57.433Z,39.18
2023-02-22T19:19:26.496Z,39.20
2023-02-22T19:21:53.007Z,39.35
2023-02-22T19:24:19.331Z,39.16
2023-02-22T19:26:45.623Z,38.82
2023-02-22T19:29:11.931Z,38.92
2023-02-22T19:31:40.885Z,39.17
2023-02-22T19:34:08.002Z,39.38
2023-02-22T19:36:34.297Z,39.26
2023-02-22T19:39:00.631Z,39.03
2023-02-22T19:41:26.940Z,38.96
2023-02-22T19:43:53.288Z,38.86
2023-02-22T19:46:19.655Z,39.19
2023-02-22T19:48:45.999Z,38.93
2023-02-22T19:51:12.365Z,39.21
2023-02-22T19:53:38.736Z,39.12
2023-02-22T19:56:05.775Z,38.82
2023-02-22T19:58:32.153Z,39.17
2023-02-22T20:00:58.506Z,38.78
2023-02-22T20:03:25.030Z,39.21
2023-02-22T20:05:51.468Z,38.81
2023-02-22T20:08:17.788Z,39.02
2023-02-22T20:10:44.257Z,39.00
2023-02-22T20:13:10.606Z,39.18
2023-02-22T20:15:36.918Z,38.80
2023-02-22T20:18:03.275Z,38.89
2023-02-22T20:20:30.768Z,39.18
2023-02-22T20:22:57.236Z,38.80
2023-02-22T20:25:23.574Z,38.76
2023-02-22T20:27:49.965Z,38.98
2023-02-22T20:30:16.332Z,39.34
2023-02-22T20:32:42.888Z,39.17
2023-02-22T20:35:09.364Z,39.37
2023-02-22T20:37:35.731Z,39.08
2023-02-22T20:40:04.190Z,38.95
2023-02-22T20:42:31.493Z,38.99
2023-02-22T20:44:57.799Z,39.26
2023-02-22T20:47:24.187Z,39.22
2023-02-22T20:49:50.494Z,39.03
2023-02-22T20:52:16.864Z,38.90
2023-02-22T20:54:43.191Z,39.19
2023-02-22T20:57:09.526Z,39.10
2023-02-22T20:59:35.849Z,39.11
2023-02-22T21:02:02.217Z,39.04
2023-02-22T21:04:28.600Z,38.83
2023-02-22T21:06:54.950Z,39.21
2023-02-22T21:09:21.316Z,39.38
2023-02-22T21:11:47.626Z,39.51
2023-02-22T21:14:13.934Z,39.36
2023-02-22T21:16:40.308Z,39.14
2023-02-22T21:19:06.691Z,39.25
2023-02-22T21:21:33.067Z,39.05
2023-02-22T21:23:59.523Z,39.28
2023-02-22T21:26:25.858Z,39.39
2023-02-22T21:28:52.316Z,39.06
2023-02-22T21:31:19.143Z,39.31
2023-02-22T21:33:45.644Z,39.03
2023-02-22T21:36:11.991Z,39.60
2023-02-22T21:38:38.319Z,39.32
2023-02-22T21:41:04.675Z,39.12
2023-02-22T21:43:31.032Z,39.30
2023-02-22T21:45:57.388Z,39.06
2023-02-22T21:48:23.762Z,39.03
2023-02-22T21:50:50.130Z,39.10
2023-02-22T21:53:16.452Z,39.03
2023-02-22T21:55:43.005Z,39.10
2023-02-22T21:58:09.405Z,39.00
2023-02-22T22:00:35.766Z,39.11
2023-02-22T22:03:02.117Z,39.45
2023-02-22T22:05:28.489Z,39.47
2023-02-22T22:07:54.875Z,39.21
2023-02-22T22:10:21.263Z,39.59
2023-02-22T22:12:47.634Z,39.54
2023-02-22T22:15:13.967Z,39.68
2023-02-22T22:17:40.269Z,39.50
2023-02-22T22:20:06.584Z,39.18
2023-02-22T22:22:32.897Z,39.37
2023-02-22T22:24:59.355Z,39.46
2023-02-22T22:27:25.676Z,39.42
2023-02-22T22:29:52.042Z,39.52
2023-02-22T22:32:18.466Z,39.05
2023-02-22T22:34:45.113Z,39.35
2023-02-22T22:37:11.451Z,39.06
2023-02-22T22:39:37.808Z,39.47
2023-02-22T22:42:04.132Z,39.27
2023-02-22T22:44:30.442Z,39.50
2023-02-22T22:46:56.744Z,39.04
2023-02-22T22:49:23.092Z,39.25
2023-02-22T22:51:49.412Z,38.95
2023-02-22T22:54:15.881Z,39.42
2023-02-22T22:56:42.245Z,38.87
2023-02-22T22:59:08.598Z,38.92
2023-02-22T23:01:34.955Z,38.96
2023-02-22T23:04:02.024Z,38.94
2023-02-22T23:06:28.587Z,39.43
2023-02-22T23:08:54.939Z,39.38
2023-02-22T23:11:21.257Z,39.45
2023-02-22T23:13:47.555Z,39.24
2023-02-22T23:16:13.930Z,39.46
2023-02-22T23:18:40.367Z,39.35
2023-02-22T23:21:06.726Z,38.96
2023-02-22T23:23:33.037Z,39.05
2023-02-22T23:25:59.498Z,39.35
2023-02-22T23:28:25.806Z,39.00
2023-02-22T23:30:52.190Z,39.09
2023-02-22T23:33:18.548Z,39.19
2023-02-22T23:35:44.856Z,39.30
2023-02-22T23:38:11.314Z,38.54
2023-02-22T23:40:37.643Z,39.11
2023-02-22T23:43:04.018Z,39.12
2023-02-22T23:45:30.356Z,38.86
2023-02-22T23:47:56.739Z,39.08
2023-02-22T23:50:23.055Z,38.90
2023-02-22T23:52:49.351Z,38.96
2023-02-22T23:55:15.803Z,38.55
2023-02-22T23:57:42.105Z,38.57
